createdAt,value
2019-04-09T00:02:28.024Z,69.3
2019-04-09T00:07:29.085Z,69.3
2019-04-09T00:12:27.917Z,69.3
2019-04-09T00:17:28.201Z,69.3
2019-04-09T00:22:28.506Z,69.2
2019-04-09T00:27:28.681Z,69.3
2019-04-09T00:32:28.896Z,69.2
2019-04-09T00:37:29.285Z,69.2
2019-04-09T00:42:29.771Z,69.2
2019-04-09T00:47:28.860Z,69.1
2019-04-09T00:52:29.179Z,69.1
2019-04-09T00:57:29.057Z,69.1
2019-04-09T01:02:29.312Z,68.9
2019-04-09T01:07:29.012Z,69.0
2019-04-09T01:12:28.869Z,69.2
2019-04-09T01:17:27.967Z,69.1
2019-04-09T01:22:29.101Z,69.0
2019-04-09T01:27:29.293Z,68.8
2019-04-09T01:32:28.469Z,68.8
2019-04-09T01:37:28.765Z,69.0
2019-04-09T01:42:29.526Z,68.9
2019-04-09T01:47:28.723Z,69.0
2019-04-09T01:52:29.066Z,68.9
2019-04-09T01:57:34.690Z,69.0
2019-04-09T02:02:29.101Z,68.9
2019-04-09T02:07:28.283Z,69.1
2019-04-09T02:12:29.107Z,69.2
2019-04-09T02:17:29.169Z,69.1
2019-04-09T02:22:29.196Z,69.1
2019-04-09T02:27:44.886Z,69.1
2019-04-09T02:32:28.864Z,69.0
2019-04-09T02:37:28.044Z,69.0
2019-04-09T02:42:28.661Z,69.0
2019-04-09T02:47:28.379Z,69.1
2019-04-09T02:52:28.444Z,69.2
2019-04-09T02:57:28.624Z,69.3
2019-04-09T03:02:28.730Z,69.3
2019-04-09T03:07:28.182Z,69.3
2019-04-09T03:12:27.890Z,69.2
2019-04-09T03:17:28.363Z,69.3
2019-04-09T03:22:27.424Z,69.3
2019-04-09T03:27:28.409Z,69.3
2019-04-09T03:32:31.453Z,69.2
2019-04-09T03:37:29.015Z,69.2
2019-04-09T03:42:28.786Z,69.4
2019-04-09T03:47:28.347Z,69.4
2019-04-09T03:52:29.243Z,69.5
2019-04-09T03:57:28.010Z,69.4
2019-04-09T04:02:29.248Z,69.5
2019-04-09T04:07:28.305Z,69.4
2019-04-09T04:12:29.239Z,69.3
2019-04-09T04:17:29.818Z,69.4
2019-04-09T04:22:29.646Z,69.4
2019-04-09T04:27:28.462Z,69.5
2019-04-09T04:32:28.863Z,69.6
2019-04-09T04:37:29.538Z,69.6
2019-04-09T04:42:28.193Z,69.5
2019-04-09T04:47:30.104Z,69.6
2019-04-09T04:52:28.287Z,69.6
2019-04-09T04:57:27.985Z,69.6
2019-04-09T05:02:28.465Z,69.6
2019-04-09T05:07:41.985Z,69.6
2019-04-09T05:12:29.838Z,69.5
2019-04-09T05:17:29.269Z,69.5
2019-04-09T05:22:32.474Z,69.6
2019-04-09T05:27:29.204Z,69.5
2019-04-09T05:32:30.097Z,69.5
2019-04-09T05:37:29.284Z,69.4
2019-04-09T05:42:29.261Z,69.5
2019-04-09T05:47:28.684Z,69.6
2019-04-09T05:52:29.094Z,69.5
2019-04-09T05:57:28.852Z,69.6
2019-04-09T06:02:29.655Z,69.5
2019-04-09T06:07:29.590Z,69.6
2019-04-09T06:12:29.270Z,69.3
2019-04-09T06:17:29.881Z,69.2
2019-04-09T06:22:28.063Z,69.2
2019-04-09T06:27:28.335Z,69.3
2019-04-09T06:32:29.309Z,69.3
2019-04-09T06:37:28.733Z,69.2
2019-04-09T06:42:28.185Z,69.1
2019-04-09T06:47:29.003Z,68.9
2019-04-09T06:52:28.876Z,69.1
2019-04-09T06:57:28.283Z,69.0
2019-04-09T07:02:28.741Z,69.0
2019-04-09T07:07:28.708Z,68.9
2019-04-09T07:12:31.433Z,68.9
2019-04-09T07:17:34.102Z,69.0
2019-04-09T07:22:29.289Z,69.0
2019-04-09T07:27:29.034Z,68.8
2019-04-09T07:32:37.357Z,68.9
2019-04-09T07:37:28.861Z,69.0
2019-04-09T07:42:28.288Z,69.2
2019-04-09T07:47:32.992Z,69.4
2019-04-09T07:52:28.699Z,69.4
2019-04-09T07:57:30.919Z,69.6
2019-04-09T08:02:28.917Z,69.6
2019-04-09T08:07:28.936Z,69.8
2019-04-09T08:12:29.113Z,69.8
2019-04-09T08:17:39.623Z,69.6
2019-04-09T08:22:29.142Z,69.8
2019-04-09T08:27:28.474Z,69.8
2019-04-09T08:32:29.765Z,69.6
2019-04-09T08:37:28.690Z,69.2
2019-04-09T08:42:30.647Z,68.6
2019-04-09T08:47:36.149Z,68.5
2019-04-09T08:52:27.855Z,68.6
2019-04-09T08:57:29.798Z,68.6
2019-04-09T09:02:40.477Z,68.5
2019-04-09T09:07:30.777Z,68.1
2019-04-09T09:12:39.182Z,68.1
2019-04-09T09:17:29.145Z,68.2
2019-04-09T09:22:32.319Z,68.5
2019-04-09T09:27:29.129Z,68.6
2019-04-09T09:32:34.018Z,69.1
2019-04-09T09:37:28.677Z,69.4
2019-04-09T09:42:28.239Z,69.6
2019-04-09T09:47:29.417Z,69.8
2019-04-09T09:52:28.558Z,69.9
2019-04-09T09:57:28.729Z,69.8
2019-04-09T10:02:37.453Z,69.6
2019-04-09T10:07:50.609Z,69.6
2019-04-09T10:12:40.967Z,69.8
2019-04-09T10:17:34.521Z,69.7
2019-04-09T10:22:28.597Z,69.6
2019-04-09T10:27:28.576Z,69.5
2019-04-09T10:32:28.760Z,69.8
2019-04-09T10:37:29.334Z,70.1
2019-04-09T10:42:29.126Z,70.4
2019-04-09T10:47:29.163Z,70.4
2019-04-09T10:52:29.238Z,70.3
2019-04-09T10:57:28.741Z,70.2
2019-04-09T11:02:33.613Z,70.1
2019-04-09T11:07:35.107Z,70.5
2019-04-09T11:12:30.827Z,70.5
2019-04-09T11:17:30.766Z,70.8
2019-04-09T11:22:28.615Z,70.9
2019-04-09T11:27:28.984Z,70.9
2019-04-09T11:32:30.074Z,70.9
2019-04-09T11:37:28.754Z,70.8
2019-04-09T11:42:30.060Z,70.6
2019-04-09T11:47:28.521Z,70.5
2019-04-09T11:52:30.512Z,70.4
2019-04-09T11:57:29.030Z,70.7
2019-04-09T12:02:28.801Z,70.7
2019-04-09T12:07:28.750Z,70.7
2019-04-09T12:12:28.302Z,70.5
2019-04-09T12:17:30.192Z,70.5
2019-04-09T12:22:28.352Z,69.8
2019-04-09T12:27:28.959Z,69.8
2019-04-09T12:32:30.241Z,69.8
2019-04-09T12:37:29.668Z,70.0
2019-04-09T12:42:28.757Z,69.8
2019-04-09T12:47:32.325Z,70.0
2019-04-09T12:52:29.902Z,70.0
2019-04-09T12:57:28.867Z,69.8
2019-04-09T13:02:37.613Z,69.8
2019-04-09T13:07:30.072Z,70.0
2019-04-09T13:12:29.229Z,70.4
2019-04-09T13:17:30.209Z,70.3
2019-04-09T13:22:28.498Z,70.4
2019-04-09T13:27:29.263Z,70.6
2019-04-09T13:32:41.459Z,70.7
2019-04-09T13:37:29.106Z,70.7
2019-04-09T13:42:29.166Z,70.7
2019-04-09T13:47:30.260Z,70.5
2019-04-09T13:52:28.206Z,70.4
2019-04-09T13:57:28.367Z,70.5
2019-04-09T14:02:28.007Z,70.4
2019-04-09T14:07:29.832Z,70.4
2019-04-09T14:12:29.417Z,70.7
2019-04-09T14:17:29.905Z,70.5
2019-04-09T14:22:28.399Z,70.6
2019-04-09T14:27:36.498Z,70.4
2019-04-09T14:32:29.837Z,70.6
2019-04-09T14:37:28.064Z,70.5
2019-04-09T14:42:28.906Z,70.4
2019-04-09T14:47:28.876Z,70.0
2019-04-09T14:52:29.181Z,70.0
2019-04-09T14:57:29.533Z,69.7
2019-04-09T15:02:28.464Z,69.0
2019-04-09T15:07:30.238Z,69.3
2019-04-09T15:12:28.766Z,68.9
2019-04-09T15:17:29.987Z,69.3
2019-04-09T15:22:29.279Z,69.8
2019-04-09T15:27:29.526Z,69.8
2019-04-09T15:32:28.627Z,69.9
2019-04-09T15:37:28.315Z,70.4
2019-04-09T15:42:28.347Z,70.5
2019-04-09T15:47:30.017Z,70.5
2019-04-09T15:52:29.373Z,70.3
2019-04-09T15:57:28.275Z,70.7
2019-04-09T16:02:30.205Z,70.6
2019-04-09T16:07:28.806Z,70.7
2019-04-09T16:12:29.462Z,71.0
2019-04-09T16:17:28.671Z,71.0
2019-04-09T16:22:29.134Z,71.1
2019-04-09T16:27:30.394Z,71.2
2019-04-09T16:32:29.060Z,71.3
2019-04-09T16:37:30.621Z,71.5
2019-04-09T16:42:40.863Z,71.6
2019-04-09T16:47:29.339Z,71.6
2019-04-09T16:52:28.987Z,71.9
2019-04-09T16:57:28.324Z,72.1
2019-04-09T17:02:28.710Z,72.1
2019-04-09T17:07:28.668Z,72.0
2019-04-09T17:12:28.795Z,72.0
2019-04-09T17:17:29.510Z,72.1
2019-04-09T17:22:28.675Z,72.2
2019-04-09T17:27:28.364Z,72.0
2019-04-09T17:32:30.187Z,72.0
2019-04-09T17:37:27.956Z,72.0
2019-04-09T17:42:30.383Z,72.1
2019-04-09T17:47:28.535Z,72.2
2019-04-09T17:52:30.369Z,71.9
2019-04-09T17:57:28.712Z,71.8
2019-04-09T18:02:28.999Z,71.8
2019-04-09T18:07:29.774Z,71.7
2019-04-09T18:12:28.689Z,71.7
2019-04-09T18:17:28.602Z,71.9
2019-04-09T18:22:27.914Z,71.9
2019-04-09T18:27:29.361Z,71.9
2019-04-09T18:32:29.364Z,71.9
2019-04-09T18:37:28.664Z,71.9
2019-04-09T18:42:28.280Z,71.8
2019-04-09T18:47:28.073Z,72.0
2019-04-09T18:52:29.161Z,72.0
2019-04-09T18:57:28.501Z,72.0
2019-04-09T19:02:29.466Z,72.0
2019-04-09T19:07:29.066Z,72.1
2019-04-09T19:12:29.221Z,72.2
2019-04-09T19:17:29.487Z,72.1
2019-04-09T19:22:29.889Z,72.2
2019-04-09T19:27:28.108Z,72.1
2019-04-09T19:32:29.538Z,72.2
2019-04-09T19:37:29.859Z,72.1
2019-04-09T19:42:29.008Z,72.2
2019-04-09T19:47:29.614Z,72.3
2019-04-09T19:52:29.683Z,72.3
2019-04-09T19:57:28.440Z,72.3
2019-04-09T20:02:28.631Z,72.4
2019-04-09T20:07:28.930Z,72.2
2019-04-09T20:12:29.566Z,72.2
2019-04-09T20:17:29.294Z,72.1
2019-04-09T20:22:29.476Z,72.1
2019-04-09T20:27:29.174Z,72.2
2019-04-09T20:32:28.009Z,72.1
2019-04-09T20:37:29.030Z,72.0
2019-04-09T20:42:28.675Z,72.1
2019-04-09T20:47:29.314Z,72.1
2019-04-09T20:52:28.325Z,72.0
2019-04-09T20:57:28.053Z,72.0
2019-04-09T21:02:29.001Z,71.8
2019-04-09T21:07:28.913Z,71.8
2019-04-09T21:12:28.966Z,71.8
2019-04-09T21:17:29.828Z,71.8
2019-04-09T21:22:29.515Z,71.7
2019-04-09T21:27:30.162Z,71.5
2019-04-09T21:32:28.890Z,71.4
2019-04-09T21:37:28.658Z,71.7
2019-04-09T21:42:29.265Z,72.0
2019-04-09T21:47:28.787Z,71.9
2019-04-09T21:52:29.276Z,72.0
2019-04-09T21:57:27.774Z,72.0
2019-04-09T22:02:29.213Z,72.0
2019-04-09T22:07:28.355Z,72.1
2019-04-09T22:12:28.309Z,71.9
2019-04-09T22:22:47.423Z,71.7
2019-04-09T22:27:46.256Z,71.7
2019-04-09T22:32:46.538Z,71.8
2019-04-09T22:37:45.796Z,71.8
2019-04-09T22:42:46.227Z,71.7
2019-04-09T22:47:45.146Z,71.7
2019-04-09T22:52:45.242Z,71.7
2019-04-09T22:57:46.821Z,71.6
2019-04-09T23:02:47.141Z,71.5
2019-04-09T23:07:45.941Z,71.7
2019-04-09T23:12:28.168Z,71.6
2019-04-09T23:17:28.720Z,71.4
2019-04-09T23:22:27.916Z,71.5
2019-04-09T23:27:28.690Z,71.5
2019-04-09T23:32:28.088Z,71.2
2019-04-09T23:37:28.393Z,71.2
2019-04-09T23:42:29.219Z,71.2
2019-04-09T23:47:29.211Z,71.2
2019-04-09T23:52:28.653Z,71.0
2019-04-09T23:57:29.025Z,71.1
